sensor_id;sensor_type;location;lat;lon;timestamp;temperature;humidity
4052;DHT22;2040;50.924;11.604;2023-04-24T00:01:55;10.00;99.90
4052;DHT22;2040;50.924;11.604;2023-04-24T00:04:21;10.00;99.90
4052;DHT22;2040;50.924;11.604;2023-04-24T00:06:47;10.00;99.90
4052;DHT22;2040;50.924;11.604;2023-04-24T00:09:19;10.00;99.90
4052;DHT22;2040;50.924;11.604;2023-04-24T00:11:45;9.90;99.90
4052;DHT22;2040;50.924;11.604;2023-04-24T00:14:10;10.00;99.90
4052;DHT22;2040;50.924;11.604;2023-04-24T00:16:36;10.00;99.90
4052;DHT22;2040;50.924;11.604;2023-04-24T00:19:01;10.00;99.90
4052;DHT22;2040;50.924;11.604;2023-04-24T00:21:27;10.00;99.90
4052;DHT22;2040;50.924;11.604;2023-04-24T00:23:53;10.00;99.90
4052;DHT22;2040;50.924;11.604;2023-04-24T00:26:18;10.00;99.90
4052;DHT22;2040;50.924;11.604;2023-04-24T00:28:44;10.00;99.90
4052;DHT22;2040;50.924;11.604;2023-04-24T00:31:10;10.00;99.90
4052;DHT22;2040;50.924;11.604;2023-04-24T00:33:35;10.10;99.90
4052;DHT22;2040;50.924;11.604;2023-04-24T00:36:01;10.10;99.90
4052;DHT22;2040;50.924;11.604;2023-04-24T00:38:27;10.10;99.90
4052;DHT22;2040;50.924;11.604;2023-04-24T00:40:52;10.10;99.90
4052;DHT22;2040;50.924;11.604;2023-04-24T00:43:19;10.00;99.90
4052;DHT22;2040;50.924;11.604;2023-04-24T00:45:45;10.00;99.90
4052;DHT22;2040;50.924;11.604;2023-04-24T00:48:11;10.00;99.90
4052;DHT22;2040;50.924;11.604;2023-04-24T00:50:38;10.00;99.90
4052;DHT22;2040;50.924;11.604;2023-04-24T00:53:04;10.00;99.90
4052;DHT22;2040;50.924;11.604;2023-04-24T00:55:30;9.90;99.90
4052;DHT22;2040;50.924;11.604;2023-04-24T00:57:55;9.90;99.90
4052;DHT22;2040;50.924;11.604;2023-04-24T01:00:21;9.90;99.90
4052;DHT22;2040;50.924;11.604;2023-04-24T01:02:48;10.00;99.90
4052;DHT22;2040;50.924;11.604;2023-04-24T01:05:14;10.00;99.90
4052;DHT22;2040;50.924;11.604;2023-04-24T01:07:41;10.00;99.90
4052;DHT22;2040;50.924;11.604;2023-04-24T01:10:11;10.00;99.90
4052;DHT22;2040;50.924;11.604;2023-04-24T01:12:37;9.90;99.90
4052;DHT22;2040;50.924;11.604;2023-04-24T01:15:02;10.00;99.90
4052;DHT22;2040;50.924;11.604;2023-04-24T01:17:29;10.00;99.90
4052;DHT22;2040;50.924;11.604;2023-04-24T01:19:55;10.00;99.90
4052;DHT22;2040;50.924;11.604;2023-04-24T01:22:22;9.90;99.90
4052;DHT22;2040;50.924;11.604;2023-04-24T01:24:48;9.90;99.90
4052;DHT22;2040;50.924;11.604;2023-04-24T01:27:16;10.00;99.90
4052;DHT22;2040;50.924;11.604;2023-04-24T01:29:41;10.00;99.90
4052;DHT22;2040;50.924;11.604;2023-04-24T01:32:07;10.00;99.90
4052;DHT22;2040;50.924;11.604;2023-04-24T01:34:33;10.00;99.90
4052;DHT22;2040;50.924;11.604;2023-04-24T01:36:59;10.00;99.90
4052;DHT22;2040;50.924;11.604;2023-04-24T01:39:26;10.00;99.90
4052;DHT22;2040;50.924;11.604;2023-04-24T01:41:54;10.00;99.90
4052;DHT22;2040;50.924;11.604;2023-04-24T01:44:20;10.00;99.90
4052;DHT22;2040;50.924;11.604;2023-04-24T01:46:45;9.90;99.90
4052;DHT22;2040;50.924;11.604;2023-04-24T01:49:11;9.90;99.90
4052;DHT22;2040;50.924;11.604;2023-04-24T01:51:37;9.80;99.90
4052;DHT22;2040;50.924;11.604;2023-04-24T01:54:02;9.80;99.90
4052;DHT22;2040;50.924;11.604;2023-04-24T01:56:29;9.80;99.90
4052;DHT22;2040;50.924;11.604;2023-04-24T01:58:56;9.70;99.90
4052;DHT22;2040;50.924;11.604;2023-04-24T02:01:24;9.70;99.90
4052;DHT22;2040;50.924;11.604;2023-04-24T02:03:49;9.80;99.90
4052;DHT22;2040;50.924;11.604;2023-04-24T02:06:15;9.80;99.90
4052;DHT22;2040;50.924;11.604;2023-04-24T02:08:41;9.80;99.90
4052;DHT22;2040;50.924;11.604;2023-04-24T02:11:08;9.80;99.90
4052;DHT22;2040;50.924;11.604;2023-04-24T02:13:34;9.80;99.90
4052;DHT22;2040;50.924;11.604;2023-04-24T02:15:59;9.70;99.90
4052;DHT22;2040;50.924;11.604;2023-04-24T02:18:25;9.70;99.90
4052;DHT22;2040;50.924;11.604;2023-04-24T02:20:50;9.70;99.90
4052;DHT22;2040;50.924;11.604;2023-04-24T02:23:16;9.70;99.90
4052;DHT22;2040;50.924;11.604;2023-04-24T02:25:41;9.70;99.90
4052;DHT22;2040;50.924;11.604;2023-04-24T02:28:07;9.70;99.90
4052;DHT22;2040;50.924;11.604;2023-04-24T02:30:33;9.70;99.90
4052;DHT22;2040;50.924;11.604;2023-04-24T02:32:58;9.70;99.90
4052;DHT22;2040;50.924;11.604;2023-04-24T02:35:24;9.70;99.90
4052;DHT22;2040;50.924;11.604;2023-04-24T02:37:49;9.70;99.90
4052;DHT22;2040;50.924;11.604;2023-04-24T02:40:15;9.70;99.90
4052;DHT22;2040;50.924;11.604;2023-04-24T02:42:40;9.80;99.90
4052;DHT22;2040;50.924;11.604;2023-04-24T02:45:06;9.80;99.90
4052;DHT22;2040;50.924;11.604;2023-04-24T02:47:32;9.80;99.90
4052;DHT22;2040;50.924;11.604;2023-04-24T02:49:57;9.70;99.90
4052;DHT22;2040;50.924;11.604;2023-04-24T02:52:23;9.70;99.90
4052;DHT22;2040;50.924;11.604;2023-04-24T02:54:49;9.70;99.90
4052;DHT22;2040;50.924;11.604;2023-04-24T02:57:14;9.60;99.90
4052;DHT22;2040;50.924;11.604;2023-04-24T02:59:40;9.60;99.90
4052;DHT22;2040;50.924;11.604;2023-04-24T03:02:05;9.60;99.90
4052;DHT22;2040;50.924;11.604;2023-04-24T03:04:31;9.50;99.90
4052;DHT22;2040;50.924;11.604;2023-04-24T03:06:57;9.50;99.90
4052;DHT22;2040;50.924;11.604;2023-04-24T03:09:22;9.60;99.90
4052;DHT22;2040;50.924;11.604;2023-04-24T03:11:49;9.50;99.90
4052;DHT22;2040;50.924;11.604;2023-04-24T03:14:15;9.50;99.90
4052;DHT22;2040;50.924;11.604;2023-04-24T03:16:40;9.50;99.90
4052;DHT22;2040;50.924;11.604;2023-04-24T03:19:06;9.50;99.90
4052;DHT22;2040;50.924;11.604;2023-04-24T03:21:32;9.60;99.90
4052;DHT22;2040;50.924;11.604;2023-04-24T03:23:58;9.50;99.90
4052;DHT22;2040;50.924;11.604;2023-04-24T03:26:23;9.50;99.90
4052;DHT22;2040;50.924;11.604;2023-04-24T03:28:49;9.60;99.90
4052;DHT22;2040;50.924;11.604;2023-04-24T03:31:14;9.60;99.90
4052;DHT22;2040;50.924;11.604;2023-04-24T03:33:40;9.70;99.90
4052;DHT22;2040;50.924;11.604;2023-04-24T03:36:06;9.60;99.90
4052;DHT22;2040;50.924;11.604;2023-04-24T03:38:32;9.60;99.90
4052;DHT22;2040;50.924;11.604;2023-04-24T03:40:57;9.60;99.90
4052;DHT22;2040;50.924;11.604;2023-04-24T03:43:23;9.60;99.90
4052;DHT22;2040;50.924;11.604;2023-04-24T03:45:48;9.70;99.90
4052;DHT22;2040;50.924;11.604;2023-04-24T03:48:14;9.70;99.90
4052;DHT22;2040;50.924;11.604;2023-04-24T03:50:40;9.60;99.90
4052;DHT22;2040;50.924;11.604;2023-04-24T03:53:05;9.60;99.90
4052;DHT22;2040;50.924;11.604;2023-04-24T03:55:31;9.60;99.90
4052;DHT22;2040;50.924;11.604;2023-04-24T03:57:56;9.50;99.90
4052;DHT22;2040;50.924;11.604;2023-04-24T04:00:22;9.50;99.90
4052;DHT22;2040;50.924;11.604;2023-04-24T04:02:47;9.40;99.90
4052;DHT22;2040;50.924;11.604;2023-04-24T04:05:13;9.50;99.90
4052;DHT22;2040;50.924;11.604;2023-04-24T04:07:38;9.50;99.90
4052;DHT22;2040;50.924;11.604;2023-04-24T04:10:04;9.40;99.90
4052;DHT22;2040;50.924;11.604;2023-04-24T04:12:32;9.40;99.90
4052;DHT22;2040;50.924;11.604;2023-04-24T04:14:57;9.40;99.90
4052;DHT22;2040;50.924;11.604;2023-04-24T04:17:23;9.40;99.90
4052;DHT22;2040;50.924;11.604;2023-04-24T04:19:49;9.40;99.90
4052;DHT22;2040;50.924;11.604;2023-04-24T04:22:14;9.40;99.90
4052;DHT22;2040;50.924;11.604;2023-04-24T04:24:40;9.40;99.90
4052;DHT22;2040;50.924;11.604;2023-04-24T04:27:06;9.40;99.90
4052;DHT22;2040;50.924;11.604;2023-04-24T04:29:32;9.40;99.90
4052;DHT22;2040;50.924;11.604;2023-04-24T04:31:58;9.40;99.90
4052;DHT22;2040;50.924;11.604;2023-04-24T04:34:24;9.40;99.90
4052;DHT22;2040;50.924;11.604;2023-04-24T04:36:49;9.50;99.90
4052;DHT22;2040;50.924;11.604;2023-04-24T04:39:16;9.60;99.90
4052;DHT22;2040;50.924;11.604;2023-04-24T04:41:42;9.60;99.90
4052;DHT22;2040;50.924;11.604;2023-04-24T04:44:07;9.60;99.90
4052;DHT22;2040;50.924;11.604;2023-04-24T04:46:34;9.60;99.90
4052;DHT22;2040;50.924;11.604;2023-04-24T04:49:01;9.70;99.90
4052;DHT22;2040;50.924;11.604;2023-04-24T04:51:26;9.70;99.90
4052;DHT22;2040;50.924;11.604;2023-04-24T04:53:53;9.70;99.90
4052;DHT22;2040;50.924;11.604;2023-04-24T04:56:18;9.70;99.90
4052;DHT22;2040;50.924;11.604;2023-04-24T04:58:44;9.70;99.90
4052;DHT22;2040;50.924;11.604;2023-04-24T05:01:10;9.80;99.90
4052;DHT22;2040;50.924;11.604;2023-04-24T05:03:35;9.90;99.90
4052;DHT22;2040;50.924;11.604;2023-04-24T05:06:02;9.90;99.90
4052;DHT22;2040;50.924;11.604;2023-04-24T05:08:27;10.00;99.90
4052;DHT22;2040;50.924;11.604;2023-04-24T05:10:53;10.00;99.90
4052;DHT22;2040;50.924;11.604;2023-04-24T05:13:19;10.10;99.90
4052;DHT22;2040;50.924;11.604;2023-04-24T05:15:45;10.20;99.90
4052;DHT22;2040;50.924;11.604;2023-04-24T05:18:10;10.20;99.90
4052;DHT22;2040;50.924;11.604;2023-04-24T05:20:36;10.20;99.90
4052;DHT22;2040;50.924;11.604;2023-04-24T05:23:02;10.20;99.90
4052;DHT22;2040;50.924;11.604;2023-04-24T05:25:27;10.20;99.90
4052;DHT22;2040;50.924;11.604;2023-04-24T05:27:53;10.20;99.90
4052;DHT22;2040;50.924;11.604;2023-04-24T05:30:19;10.20;99.90
4052;DHT22;2040;50.924;11.604;2023-04-24T05:32:45;10.30;99.90
4052;DHT22;2040;50.924;11.604;2023-04-24T05:35:11;10.20;99.90
4052;DHT22;2040;50.924;11.604;2023-04-24T05:37:37;10.30;99.90
4052;DHT22;2040;50.924;11.604;2023-04-24T05:40:03;10.20;99.90
4052;DHT22;2040;50.924;11.604;2023-04-24T05:42:30;10.20;99.90
4052;DHT22;2040;50.924;11.604;2023-04-24T05:44:56;10.20;99.90
4052;DHT22;2040;50.924;11.604;2023-04-24T05:47:21;10.20;99.90
4052;DHT22;2040;50.924;11.604;2023-04-24T05:49:47;10.20;99.90
4052;DHT22;2040;50.924;11.604;2023-04-24T05:52:13;10.20;99.90
4052;DHT22;2040;50.924;11.604;2023-04-24T05:54:38;10.20;99.90
4052;DHT22;2040;50.924;11.604;2023-04-24T05:57:04;10.30;99.90
4052;DHT22;2040;50.924;11.604;2023-04-24T05:59:37;10.40;99.90
4052;DHT22;2040;50.924;11.604;2023-04-24T06:02:04;10.60;99.90
4052;DHT22;2040;50.924;11.604;2023-04-24T06:04:29;10.70;99.90
4052;DHT22;2040;50.924;11.604;2023-04-24T06:06:55;10.70;99.90
4052;DHT22;2040;50.924;11.604;2023-04-24T06:09:24;10.80;99.90
4052;DHT22;2040;50.924;11.604;2023-04-24T06:11:50;10.90;99.90
4052;DHT22;2040;50.924;11.604;2023-04-24T06:14:18;11.00;99.90
4052;DHT22;2040;50.924;11.604;2023-04-24T06:16:44;11.00;99.90
4052;DHT22;2040;50.924;11.604;2023-04-24T06:19:10;11.00;99.90
4052;DHT22;2040;50.924;11.604;2023-04-24T06:21:35;11.00;99.90
4052;DHT22;2040;50.924;11.604;2023-04-24T06:24:01;11.00;99.90
4052;DHT22;2040;50.924;11.604;2023-04-24T06:26:27;11.00;99.90
4052;DHT22;2040;50.924;11.604;2023-04-24T06:28:53;11.10;99.90
4052;DHT22;2040;50.924;11.604;2023-04-24T06:31:21;11.20;99.90
4052;DHT22;2040;50.924;11.604;2023-04-24T06:33:48;11.20;99.90
4052;DHT22;2040;50.924;11.604;2023-04-24T06:36:14;11.30;99.90
4052;DHT22;2040;50.924;11.604;2023-04-24T06:38:39;11.40;99.90
4052;DHT22;2040;50.924;11.604;2023-04-24T06:41:05;11.30;99.90
4052;DHT22;2040;50.924;11.604;2023-04-24T06:43:34;11.40;99.90
4052;DHT22;2040;50.924;11.604;2023-04-24T06:46:00;11.40;99.90
4052;DHT22;2040;50.924;11.604;2023-04-24T06:48:26;11.50;99.90
4052;DHT22;2040;50.924;11.604;2023-04-24T06:50:52;11.60;99.90
4052;DHT22;2040;50.924;11.604;2023-04-24T06:53:17;11.70;99.90
4052;DHT22;2040;50.924;11.604;2023-04-24T06:55:43;11.70;99.90
4052;DHT22;2040;50.924;11.604;2023-04-24T06:58:11;11.70;99.90
4052;DHT22;2040;50.924;11.604;2023-04-24T07:00:37;11.80;99.90
4052;DHT22;2040;50.924;11.604;2023-04-24T07:03:03;11.80;99.90
4052;DHT22;2040;50.924;11.604;2023-04-24T07:05:30;11.80;99.90
4052;DHT22;2040;50.924;11.604;2023-04-24T07:07:56;11.80;99.90
4052;DHT22;2040;50.924;11.604;2023-04-24T07:10:24;11.70;99.90
4052;DHT22;2040;50.924;11.604;2023-04-24T07:12:50;11.70;99.90
4052;DHT22;2040;50.924;11.604;2023-04-24T07:15:15;11.70;99.90
4052;DHT22;2040;50.924;11.604;2023-04-24T07:17:41;11.70;99.90
4052;DHT22;2040;50.924;11.604;2023-04-24T07:20:10;11.70;99.90
4052;DHT22;2040;50.924;11.604;2023-04-24T07:22:40;11.70;99.90
4052;DHT22;2040;50.924;11.604;2023-04-24T07:25:06;11.80;99.90
4052;DHT22;2040;50.924;11.604;2023-04-24T07:27:33;11.90;99.90
4052;DHT22;2040;50.924;11.604;2023-04-24T07:29:59;12.10;99.90
4052;DHT22;2040;50.924;11.604;2023-04-24T07:32:24;12.20;99.90
4052;DHT22;2040;50.924;11.604;2023-04-24T07:34:50;12.20;99.90
4052;DHT22;2040;50.924;11.604;2023-04-24T07:37:16;12.30;99.90
4052;DHT22;2040;50.924;11.604;2023-04-24T07:39:42;12.40;99.90
4052;DHT22;2040;50.924;11.604;2023-04-24T07:42:07;12.40;99.90
4052;DHT22;2040;50.924;11.604;2023-04-24T07:44:33;12.50;99.90
4052;DHT22;2040;50.924;11.604;2023-04-24T07:46:58;12.60;99.90
4052;DHT22;2040;50.924;11.604;2023-04-24T07:49:25;12.60;99.90
4052;DHT22;2040;50.924;11.604;2023-04-24T07:51:50;12.70;99.90
4052;DHT22;2040;50.924;11.604;2023-04-24T07:54:16;12.70;99.90
4052;DHT22;2040;50.924;11.604;2023-04-24T07:56:42;12.80;99.90
4052;DHT22;2040;50.924;11.604;2023-04-24T07:59:08;12.90;99.90
4052;DHT22;2040;50.924;11.604;2023-04-24T08:01:37;12.70;99.90
4052;DHT22;2040;50.924;11.604;2023-04-24T08:04:03;12.60;99.90
4052;DHT22;2040;50.924;11.604;2023-04-24T08:06:29;12.60;99.90
4052;DHT22;2040;50.924;11.604;2023-04-24T08:08:59;12.60;99.90
4052;DHT22;2040;50.924;11.604;2023-04-24T08:11:25;12.60;99.90
4052;DHT22;2040;50.924;11.604;2023-04-24T08:13:51;12.70;99.90
4052;DHT22;2040;50.924;11.604;2023-04-24T08:16:17;12.90;99.90
4052;DHT22;2040;50.924;11.604;2023-04-24T08:18:43;13.00;99.90
4052;DHT22;2040;50.924;11.604;2023-04-24T08:21:08;13.10;99.90
4052;DHT22;2040;50.924;11.604;2023-04-24T08:23:34;13.40;99.90
4052;DHT22;2040;50.924;11.604;2023-04-24T08:25:59;13.70;99.90
4052;DHT22;2040;50.924;11.604;2023-04-24T08:28:25;14.10;99.90
4052;DHT22;2040;50.924;11.604;2023-04-24T08:30:51;14.20;99.90
4052;DHT22;2040;50.924;11.604;2023-04-24T08:33:20;14.10;99.90
4052;DHT22;2040;50.924;11.604;2023-04-24T08:35:46;14.20;99.90
4052;DHT22;2040;50.924;11.604;2023-04-24T08:38:11;14.10;99.90
4052;DHT22;2040;50.924;11.604;2023-04-24T08:40:37;13.90;99.90
4052;DHT22;2040;50.924;11.604;2023-04-24T08:43:03;13.70;99.90
4052;DHT22;2040;50.924;11.604;2023-04-24T08:45:29;13.70;99.90
4052;DHT22;2040;50.924;11.604;2023-04-24T08:47:55;13.50;99.90
4052;DHT22;2040;50.924;11.604;2023-04-24T08:50:21;13.40;99.90
4052;DHT22;2040;50.924;11.604;2023-04-24T08:52:49;13.30;99.90
4052;DHT22;2040;50.924;11.604;2023-04-24T08:55:15;13.30;99.90
4052;DHT22;2040;50.924;11.604;2023-04-24T08:57:45;13.40;99.90
4052;DHT22;2040;50.924;11.604;2023-04-24T09:00:11;13.50;99.90
4052;DHT22;2040;50.924;11.604;2023-04-24T09:02:41;13.30;99.90
4052;DHT22;2040;50.924;11.604;2023-04-24T09:05:08;13.50;99.90
4052;DHT22;2040;50.924;11.604;2023-04-24T09:07:35;13.70;99.90
4052;DHT22;2040;50.924;11.604;2023-04-24T09:10:04;13.90;99.90
4052;DHT22;2040;50.924;11.604;2023-04-24T09:12:30;13.70;99.90
4052;DHT22;2040;50.924;11.604;2023-04-24T09:14:56;13.70;99.90
4052;DHT22;2040;50.924;11.604;2023-04-24T09:17:22;13.60;99.90
4052;DHT22;2040;50.924;11.604;2023-04-24T09:19:49;13.70;99.90
4052;DHT22;2040;50.924;11.604;2023-04-24T09:22:15;13.70;99.90
4052;DHT22;2040;50.924;11.604;2023-04-24T09:24:41;13.70;99.90
4052;DHT22;2040;50.924;11.604;2023-04-24T09:27:07;13.70;99.90
4052;DHT22;2040;50.924;11.604;2023-04-24T09:29:32;13.60;99.90
4052;DHT22;2040;50.924;11.604;2023-04-24T09:31:58;13.50;99.90
4052;DHT22;2040;50.924;11.604;2023-04-24T09:34:26;13.60;99.90
4052;DHT22;2040;50.924;11.604;2023-04-24T09:36:53;13.70;99.90
4052;DHT22;2040;50.924;11.604;2023-04-24T09:39:19;14.00;99.90
4052;DHT22;2040;50.924;11.604;2023-04-24T09:41:55;13.90;99.90
4052;DHT22;2040;50.924;11.604;2023-04-24T09:44:27;13.80;99.90
4052;DHT22;2040;50.924;11.604;2023-04-24T09:47:00;13.90;99.90
4052;DHT22;2040;50.924;11.604;2023-04-24T09:49:30;13.90;99.90
4052;DHT22;2040;50.924;11.604;2023-04-24T09:52:03;14.00;99.90
4052;DHT22;2040;50.924;11.604;2023-04-24T09:54:29;14.00;99.90
4052;DHT22;2040;50.924;11.604;2023-04-24T09:56:55;14.10;99.90
4052;DHT22;2040;50.924;11.604;2023-04-24T09:59:22;14.10;99.90
4052;DHT22;2040;50.924;11.604;2023-04-24T10:01:48;14.10;99.90
4052;DHT22;2040;50.924;11.604;2023-04-24T10:04:23;14.00;99.90
4052;DHT22;2040;50.924;11.604;2023-04-24T10:06:50;13.80;99.90
4052;DHT22;2040;50.924;11.604;2023-04-24T10:09:17;13.80;99.90
4052;DHT22;2040;50.924;11.604;2023-04-24T10:11:45;13.80;99.90
4052;DHT22;2040;50.924;11.604;2023-04-24T10:14:16;13.80;99.90
4052;DHT22;2040;50.924;11.604;2023-04-24T10:16:42;13.70;99.90
4052;DHT22;2040;50.924;11.604;2023-04-24T10:19:08;13.90;99.90
4052;DHT22;2040;50.924;11.604;2023-04-24T10:21:35;14.30;99.90
4052;DHT22;2040;50.924;11.604;2023-04-24T10:24:03;14.50;99.90
4052;DHT22;2040;50.924;11.604;2023-04-24T10:26:33;14.80;99.90
4052;DHT22;2040;50.924;11.604;2023-04-24T10:28:59;14.70;99.90
4052;DHT22;2040;50.924;11.604;2023-04-24T10:31:26;14.60;99.90
4052;DHT22;2040;50.924;11.604;2023-04-24T10:33:53;14.50;99.90
4052;DHT22;2040;50.924;11.604;2023-04-24T10:36:22;14.50;99.90
4052;DHT22;2040;50.924;11.604;2023-04-24T10:38:49;14.40;99.90
4052;DHT22;2040;50.924;11.604;2023-04-24T10:41:17;14.20;99.90
4052;DHT22;2040;50.924;11.604;2023-04-24T10:43:48;14.10;99.90
4052;DHT22;2040;50.924;11.604;2023-04-24T10:46:20;13.90;99.90
4052;DHT22;2040;50.924;11.604;2023-04-24T10:48:54;14.20;99.90
4052;DHT22;2040;50.924;11.604;2023-04-24T10:51:22;14.30;99.90
4052;DHT22;2040;50.924;11.604;2023-04-24T10:53:50;14.20;99.90
4052;DHT22;2040;50.924;11.604;2023-04-24T10:56:17;14.10;99.90
4052;DHT22;2040;50.924;11.604;2023-04-24T10:58:44;14.20;99.90
4052;DHT22;2040;50.924;11.604;2023-04-24T11:01:31;14.10;99.90
4052;DHT22;2040;50.924;11.604;2023-04-24T11:03:59;14.00;99.90
4052;DHT22;2040;50.924;11.604;2023-04-24T11:06:33;14.00;99.90
4052;DHT22;2040;50.924;11.604;2023-04-24T11:09:10;14.20;99.90
4052;DHT22;2040;50.924;11.604;2023-04-24T11:11:45;14.50;99.90
4052;DHT22;2040;50.924;11.604;2023-04-24T11:14:11;14.90;99.90
4052;DHT22;2040;50.924;11.604;2023-04-24T11:16:52;15.20;99.90
4052;DHT22;2040;50.924;11.604;2023-04-24T11:19:21;15.20;99.90
4052;DHT22;2040;50.924;11.604;2023-04-24T11:24:29;14.60;99.90
4052;DHT22;2040;50.924;11.604;2023-04-24T11:27:04;14.30;99.90
4052;DHT22;2040;50.924;11.604;2023-04-24T11:35:00;14.60;99.90
4052;DHT22;2040;50.924;11.604;2023-04-24T11:37:37;15.10;99.90
4052;DHT22;2040;50.924;11.604;2023-04-24T11:40:04;16.10;99.90
4052;DHT22;2040;50.924;11.604;2023-04-24T11:42:38;16.40;99.90
4052;DHT22;2040;50.924;11.604;2023-04-24T11:45:11;16.70;99.90
4052;DHT22;2040;50.924;11.604;2023-04-24T11:47:38;16.80;99.90
4052;DHT22;2040;50.924;11.604;2023-04-24T11:50:05;16.80;99.90
4052;DHT22;2040;50.924;11.604;2023-04-24T11:52:32;16.60;99.90
4052;DHT22;2040;50.924;11.604;2023-04-24T11:54:59;16.70;99.90
4052;DHT22;2040;50.924;11.604;2023-04-24T11:57:25;16.30;99.90
4052;DHT22;2040;50.924;11.604;2023-04-24T12:00:02;16.10;99.90
4052;DHT22;2040;50.924;11.604;2023-04-24T12:02:29;16.00;99.90
4052;DHT22;2040;50.924;11.604;2023-04-24T12:04:55;15.90;99.90
4052;DHT22;2040;50.924;11.604;2023-04-24T12:07:22;16.20;99.90
4052;DHT22;2040;50.924;11.604;2023-04-24T12:09:50;16.20;99.90
4052;DHT22;2040;50.924;11.604;2023-04-24T12:12:19;16.40;99.90
4052;DHT22;2040;50.924;11.604;2023-04-24T12:14:48;16.10;99.90
4052;DHT22;2040;50.924;11.604;2023-04-24T12:17:16;15.90;99.90
4052;DHT22;2040;50.924;11.604;2023-04-24T12:19:48;15.50;99.90
4052;DHT22;2040;50.924;11.604;2023-04-24T12:22:14;15.80;99.90
4052;DHT22;2040;50.924;11.604;2023-04-24T12:25:16;16.50;99.90
4052;DHT22;2040;50.924;11.604;2023-04-24T12:27:43;16.90;99.90
4052;DHT22;2040;50.924;11.604;2023-04-24T12:30:13;17.00;99.90
4052;DHT22;2040;50.924;11.604;2023-04-24T12:32:44;17.30;99.90
4052;DHT22;2040;50.924;11.604;2023-04-24T12:35:10;17.80;99.90
4052;DHT22;2040;50.924;11.604;2023-04-24T12:37:36;18.50;99.90
4052;DHT22;2040;50.924;11.604;2023-04-24T12:42:29;18.50;99.90
4052;DHT22;2040;50.924;11.604;2023-04-24T12:45:06;18.60;99.90
4052;DHT22;2040;50.924;11.604;2023-04-24T12:47:33;18.10;99.90
4052;DHT22;2040;50.924;11.604;2023-04-24T12:49:59;17.90;99.90
4052;DHT22;2040;50.924;11.604;2023-04-24T12:52:26;17.60;99.90
4052;DHT22;2040;50.924;11.604;2023-04-24T12:54:54;17.50;99.90
4052;DHT22;2040;50.924;11.604;2023-04-24T12:57:21;17.70;99.90
4052;DHT22;2040;50.924;11.604;2023-04-24T12:59:46;17.60;99.90
4052;DHT22;2040;50.924;11.604;2023-04-24T13:02:12;17.40;99.90
4052;DHT22;2040;50.924;11.604;2023-04-24T13:04:37;17.50;99.90
4052;DHT22;2040;50.924;11.604;2023-04-24T13:07:03;16.60;99.90
4052;DHT22;2040;50.924;11.604;2023-04-24T13:09:30;16.90;99.90
4052;DHT22;2040;50.924;11.604;2023-04-24T13:11:55;16.90;99.90
4052;DHT22;2040;50.924;11.604;2023-04-24T13:14:22;16.20;99.90
4052;DHT22;2040;50.924;11.604;2023-04-24T13:16:48;15.70;99.90
4052;DHT22;2040;50.924;11.604;2023-04-24T13:19:14;15.20;99.90
4052;DHT22;2040;50.924;11.604;2023-04-24T13:21:40;15.00;99.90
4052;DHT22;2040;50.924;11.604;2023-04-24T13:24:06;15.00;99.90
4052;DHT22;2040;50.924;11.604;2023-04-24T13:26:33;14.80;99.90
4052;DHT22;2040;50.924;11.604;2023-04-24T13:28:58;14.80;99.90
4052;DHT22;2040;50.924;11.604;2023-04-24T13:31:24;14.60;99.90
4052;DHT22;2040;50.924;11.604;2023-04-24T13:33:49;14.50;99.90
4052;DHT22;2040;50.924;11.604;2023-04-24T13:36:15;14.50;99.90
4052;DHT22;2040;50.924;11.604;2023-04-24T13:38:43;14.40;99.90
4052;DHT22;2040;50.924;11.604;2023-04-24T13:41:09;14.10;99.90
4052;DHT22;2040;50.924;11.604;2023-04-24T13:43:35;13.90;99.90
4052;DHT22;2040;50.924;11.604;2023-04-24T13:46:01;13.80;99.90
4052;DHT22;2040;50.924;11.604;2023-04-24T13:48:29;13.70;99.90
4052;DHT22;2040;50.924;11.604;2023-04-24T13:50:56;13.50;99.90
4052;DHT22;2040;50.924;11.604;2023-04-24T13:53:23;13.00;99.90
4052;DHT22;2040;50.924;11.604;2023-04-24T13:55:48;13.00;99.90
4052;DHT22;2040;50.924;11.604;2023-04-24T13:58:14;13.50;99.90
4052;DHT22;2040;50.924;11.604;2023-04-24T14:00:40;14.50;99.90
4052;DHT22;2040;50.924;11.604;2023-04-24T14:03:06;15.30;99.90
4052;DHT22;2040;50.924;11.604;2023-04-24T14:05:31;15.80;99.90
4052;DHT22;2040;50.924;11.604;2023-04-24T14:07:57;16.20;99.90
4052;DHT22;2040;50.924;11.604;2023-04-24T14:10:22;16.30;99.90
4052;DHT22;2040;50.924;11.604;2023-04-24T14:12:48;16.40;99.90
4052;DHT22;2040;50.924;11.604;2023-04-24T14:15:13;16.20;99.90
4052;DHT22;2040;50.924;11.604;2023-04-24T14:17:39;16.30;99.90
4052;DHT22;2040;50.924;11.604;2023-04-24T14:20:05;16.60;99.90
4052;DHT22;2040;50.924;11.604;2023-04-24T14:22:32;16.70;99.90
4052;DHT22;2040;50.924;11.604;2023-04-24T14:24:58;16.80;99.90
4052;DHT22;2040;50.924;11.604;2023-04-24T14:27:24;16.70;99.90
4052;DHT22;2040;50.924;11.604;2023-04-24T14:29:52;17.00;99.90
4052;DHT22;2040;50.924;11.604;2023-04-24T14:32:18;16.90;99.90
4052;DHT22;2040;50.924;11.604;2023-04-24T14:34:43;17.00;99.90
4052;DHT22;2040;50.924;11.604;2023-04-24T14:37:09;16.60;99.90
4052;DHT22;2040;50.924;11.604;2023-04-24T14:39:35;16.20;99.90
4052;DHT22;2040;50.924;11.604;2023-04-24T14:42:01;16.00;99.90
4052;DHT22;2040;50.924;11.604;2023-04-24T14:44:27;16.00;99.90
4052;DHT22;2040;50.924;11.604;2023-04-24T14:46:52;15.90;99.90
4052;DHT22;2040;50.924;11.604;2023-04-24T14:49:18;15.80;99.90
4052;DHT22;2040;50.924;11.604;2023-04-24T14:51:44;15.10;99.90
4052;DHT22;2040;50.924;11.604;2023-04-24T14:54:09;15.00;99.90
4052;DHT22;2040;50.924;11.604;2023-04-24T14:56:35;14.80;99.90
4052;DHT22;2040;50.924;11.604;2023-04-24T14:59:01;14.70;99.90
4052;DHT22;2040;50.924;11.604;2023-04-24T15:01:27;14.50;99.90
4052;DHT22;2040;50.924;11.604;2023-04-24T15:03:53;14.10;99.90
4052;DHT22;2040;50.924;11.604;2023-04-24T15:06:18;13.80;99.90
4052;DHT22;2040;50.924;11.604;2023-04-24T15:08:45;13.50;99.90
4052;DHT22;2040;50.924;11.604;2023-04-24T15:11:11;13.60;99.90
4052;DHT22;2040;50.924;11.604;2023-04-24T15:13:37;13.60;99.90
4052;DHT22;2040;50.924;11.604;2023-04-24T15:16:03;13.60;99.90
4052;DHT22;2040;50.924;11.604;2023-04-24T15:18:28;13.60;99.90
4052;DHT22;2040;50.924;11.604;2023-04-24T15:20:55;13.60;99.90
4052;DHT22;2040;50.924;11.604;2023-04-24T15:23:21;13.80;99.90
4052;DHT22;2040;50.924;11.604;2023-04-24T15:25:47;14.40;99.90
4052;DHT22;2040;50.924;11.604;2023-04-24T15:28:12;14.20;99.90
4052;DHT22;2040;50.924;11.604;2023-04-24T15:30:39;13.90;99.90
4052;DHT22;2040;50.924;11.604;2023-04-24T15:33:04;13.70;99.90
4052;DHT22;2040;50.924;11.604;2023-04-24T15:35:30;14.00;99.90
4052;DHT22;2040;50.924;11.604;2023-04-24T15:37:56;14.30;99.90
4052;DHT22;2040;50.924;11.604;2023-04-24T15:40:21;14.30;99.90
4052;DHT22;2040;50.924;11.604;2023-04-24T15:42:47;14.60;99.90
4052;DHT22;2040;50.924;11.604;2023-04-24T15:45:13;15.20;99.90
4052;DHT22;2040;50.924;11.604;2023-04-24T15:47:38;15.40;99.90
4052;DHT22;2040;50.924;11.604;2023-04-24T15:50:04;15.30;99.90
4052;DHT22;2040;50.924;11.604;2023-04-24T15:52:30;14.90;99.90
4052;DHT22;2040;50.924;11.604;2023-04-24T15:54:56;14.90;99.90
4052;DHT22;2040;50.924;11.604;2023-04-24T15:57:21;15.10;99.90